Time;durP1;ratioP1;P1;durP2;ratioP2;P2;SDS_P1;SDS_P2;PMS_P1;PMS_P2;Temp;Humidity;BMP_temperature;BMP_pressure;BME280_temperature;BME280_humidity;BME280_pressure;Samples;Min_cycle;Max_cycle;Signal;HPM_P1;HPM_P2
2021/06/12 06:26:17;;;;;;;35.57;32.77;;;;;;;;;;6241042;22;20462;-81
2021/06/12 06:28:44;;;;;;;33.87;31.07;;;;;;;;;;6278568;22;20366;-81
2021/06/12 06:31:11;;;;;;;33.40;30.60;;;;;;;;;;6278915;22;20392;-80
2021/06/12 06:33:38;;;;;;;32.57;29.90;;;;;;;;;;6279319;22;20446;-81
2021/06/12 06:36:05;;;;;;;32.57;29.80;;;;;;;;;;6279269;22;20725;-80
2021/06/12 06:38:32;;;;;;;32.20;29.53;;;;;;;;;;6279395;22;20366;-81
2021/06/12 06:40:59;;;;;;;31.93;29.10;;;;;;;;;;6279300;22;20387;-81
2021/06/12 06:43:27;;;;;;;34.07;30.93;;;;;;;;;;6278912;22;20863;-81
2021/06/12 06:45:55;;;;;;;32.37;29.77;;;;;;;;;;6278783;22;20710;-81
2021/06/12 06:48:21;;;;;;;32.87;30.27;;;;;;;;;;6279117;22;20375;-81
2021/06/12 06:50:48;;;;;;;30.70;28.50;;;;;;;;;;6278775;22;20407;-81
2021/06/12 06:53:15;;;;;;;31.67;29.13;;;;;;;;;;6279124;22;20443;-81
2021/06/12 06:55:42;;;;;;;31.20;28.50;;;;;;;;;;6278935;22;20446;-81
2021/06/12 06:58:09;;;;;;;31.60;29.00;;;;;;;;;;6279164;22;20371;-81
2021/06/12 07:00:37;;;;;;;31.47;28.97;;;;;;;;;;6279358;22;20389;-86
2021/06/12 07:03:04;;;;;;;33.90;31.30;;;;;;;;;;6279480;22;20714;-81
2021/06/12 07:05:31;;;;;;;32.57;29.87;;;;;;;;;;6278625;22;20374;-82
2021/06/12 07:07:58;;;;;;;32.87;30.37;;;;;;;;;;6278808;22;20362;-82
2021/06/12 07:10:25;;;;;;;34.93;32.13;;;;;;;;;;6279265;22;20388;-87
2021/06/12 07:12:52;;;;;;;31.60;29.10;;;;;;;;;;6278608;22;20367;-81
2021/06/12 07:15:19;;;;;;;28.60;26.60;;;;;;;;;;6278888;22;20727;-84
2021/06/12 07:17:47;;;;;;;31.23;28.87;;;;;;;;;;6278687;22;20373;-82
2021/06/12 07:20:14;;;;;;;29.83;27.50;;;;;;;;;;6278258;22;20378;-82
2021/06/12 07:22:41;;;;;;;30.97;28.57;;;;;;;;;;6278924;22;20399;-82
2021/06/12 07:25:08;;;;;;;31.40;29.00;;;;;;;;;;6278116;22;20402;-82
2021/06/12 07:27:35;;;;;;;31.13;28.73;;;;;;;;;;6278256;22;20442;-83
2021/06/12 07:30:02;;;;;;;31.73;29.33;;;;;;;;;;6278356;22;20395;-83
2021/06/12 07:32:29;;;;;;;33.07;30.27;;;;;;;;;;6278983;22;20429;-83
2021/06/12 07:34:58;;;;;;;34.67;31.57;;;;;;;;;;6278834;22;20439;-82
2021/06/12 07:37:25;;;;;;;34.53;31.60;;;;;;;;;;6278372;22;20375;-82
2021/06/12 07:39:52;;;;;;;36.93;33.53;;;;;;;;;;6279082;22;20377;-83
2021/06/12 07:42:19;;;;;;;34.60;31.43;;;;;;;;;;6278344;22;20688;-87
2021/06/12 07:44:46;;;;;;;35.23;32.10;;;;;;;;;;6279180;22;20843;-86
2021/06/12 07:47:13;;;;;;;36.97;33.87;;;;;;;;;;6278763;22;20373;-85
2021/06/12 07:49:40;;;;;;;35.20;32.33;;;;;;;;;;6279181;22;20374;-92
2021/06/12 07:52:09;;;;;;;36.17;33.17;;;;;;;;;;6278863;22;20375;-91
2021/06/12 07:54:35;;;;;;;35.50;32.43;;;;;;;;;;6279224;22;20455;-94
2021/06/12 07:57:02;;;;;;;34.53;31.70;;;;;;;;;;6279200;22;20723;-93
2021/06/12 07:59:29;;;;;;;36.70;33.50;;;;;;;;;;6279097;22;20383;-92
2021/06/12 08:01:56;;;;;;;36.37;33.40;;;;;;;;;;6279298;22;20383;-87
2021/06/12 08:04:24;;;;;;;36.43;33.40;;;;;;;;;;6251807;22;20386;-85
2021/06/12 08:06:51;;;;;;;35.50;32.57;;;;;;;;;;6278723;22;20407;-84
2021/06/12 08:09:19;;;;;;;33.40;30.70;;;;;;;;;;6278397;22;20374;-83
2021/06/12 08:11:46;;;;;;;36.03;33.07;;;;;;;;;;6278577;22;20363;-86
2021/06/12 08:14:13;;;;;;;35.27;32.37;;;;;;;;;;6251714;22;20915;-82
2021/06/12 08:16:40;;;;;;;36.70;33.60;;;;;;;;;;6278143;22;20405;-82
2021/06/12 08:19:07;;;;;;;36.10;33.30;;;;;;;;;;6278230;22;20883;-83
2021/06/12 08:21:36;;;;;;;34.23;31.20;;;;;;;;;;6277933;22;20514;-83
2021/06/12 08:24:02;;;;;;;33.27;30.87;;;;;;;;;;6278443;22;20716;-80
2021/06/12 08:26:31;;;;;;;36.07;33.27;;;;;;;;;;6277512;22;20933;-83
2021/06/12 08:28:58;;;;;;;35.27;32.13;;;;;;;;;;6278391;22;20490;-84
2021/06/12 08:31:25;;;;;;;35.07;32.17;;;;;;;;;;6278318;22;20403;-82
2021/06/12 08:33:52;;;;;;;34.67;31.73;;;;;;;;;;6277947;22;20909;-83
2021/06/12 08:36:19;;;;;;;33.87;31.37;;;;;;;;;;6277560;22;20399;-85
2021/06/12 08:38:45;;;;;;;34.40;31.80;;;;;;;;;;6278570;22;20387;-88
2021/06/12 08:41:12;;;;;;;33.67;31.17;;;;;;;;;;6278353;22;20391;-87
2021/06/12 08:43:41;;;;;;;33.00;30.50;;;;;;;;;;6277925;22;20386;-88
2021/06/12 08:46:08;;;;;;;33.33;30.40;;;;;;;;;;6278677;22;20400;-86
2021/06/12 08:48:35;;;;;;;33.13;30.73;;;;;;;;;;6278617;22;20420;-86
2021/06/12 08:51:02;;;;;;;31.03;28.33;;;;;;;;;;6278104;22;20377;-85
2021/06/12 08:53:31;;;;;;;32.43;30.13;;;;;;;;;;6275127;22;20454;-87
2021/06/12 08:55:58;;;;;;;31.17;28.60;;;;;;;;;;6274103;22;20378;-81
2021/06/12 08:58:25;;;;;;;31.53;28.97;;;;;;;;;;6278053;22;20392;-81
2021/06/12 09:00:53;;;;;;;32.90;30.40;;;;;;;;;;6277633;22;20404;-81
2021/06/12 09:03:22;;;;;;;32.37;29.87;;;;;;;;;;6277624;22;20397;-82
2021/06/12 09:05:51;;;;;;;31.63;29.23;;;;;;;;;;6277441;22;20871;-82
2021/06/12 09:08:19;;;;;;;32.40;29.80;;;;;;;;;;6250819;22;20440;-82
2021/06/12 09:10:47;;;;;;;33.47;30.70;;;;;;;;;;6277786;22;20421;-82
2021/06/12 09:13:14;;;;;;;33.53;30.83;;;;;;;;;;6277568;22;20437;-82
2021/06/12 09:15:41;;;;;;;32.73;30.00;;;;;;;;;;6277291;22;20735;-82
2021/06/12 09:18:09;;;;;;;30.97;28.47;;;;;;;;;;6277952;22;20400;-82
2021/06/12 09:20:43;;;;;;;31.97;29.87;;;;;;;;;;6250774;22;20769;-81
2021/06/12 09:23:12;;;;;;;34.00;31.60;;;;;;;;;;6277528;22;20385;-83
2021/06/12 09:25:39;;;;;;;33.27;30.63;;;;;;;;;;6277303;22;20439;-82
2021/06/12 09:28:06;;;;;;;32.27;29.73;;;;;;;;;;6277745;22;20371;-83
2021/06/12 09:30:33;;;;;;;34.47;31.83;;;;;;;;;;6277314;22;20503;-82
2021/06/12 09:33:00;;;;;;;32.17;29.87;;;;;;;;;;6277588;22;20371;-83
2021/06/12 09:35:32;;;;;;;35.20;32.40;;;;;;;;;;6277607;22;20409;-83
2021/06/12 09:38:00;;;;;;;33.97;31.50;;;;;;;;;;6277369;22;20471;-82
2021/06/12 09:40:31;;;;;;;31.30;29.07;;;;;;;;;;6277745;22;20399;-82
2021/06/12 09:43:01;;;;;;;32.80;30.40;;;;;;;;;;6277672;22;20452;-82
2021/06/12 09:45:28;;;;;;;31.57;29.37;;;;;;;;;;6277065;22;20368;-82
2021/06/12 09:48:07;;;;;;;31.90;29.70;;;;;;;;;;6250075;22;20413;-82
2021/06/12 09:50:36;;;;;;;32.13;29.37;;;;;;;;;;6277615;22;20397;-83
2021/06/12 09:53:11;;;;;;;29.17;27.10;;;;;;;;;;6276743;22;20397;-83
2021/06/12 09:55:38;;;;;;;26.33;24.43;;;;;;;;;;6277067;22;20414;-83
2021/06/12 09:58:06;;;;;;;33.40;31.10;;;;;;;;;;6276978;22;20440;-82
2021/06/12 10:00:34;;;;;;;28.13;26.13;;;;;;;;;;6277169;22;20404;-82
2021/06/12 10:03:01;;;;;;;33.20;30.73;;;;;;;;;;6277201;22;20394;-83
2021/06/12 10:05:28;;;;;;;31.10;29.00;;;;;;;;;;6277007;22;20401;-83
2021/06/12 10:07:56;;;;;;;28.53;26.33;;;;;;;;;;6277614;22;20438;-83
2021/06/12 10:10:23;;;;;;;30.10;27.90;;;;;;;;;;6250380;22;20409;-82
2021/06/12 10:12:52;;;;;;;29.10;27.20;;;;;;;;;;6277233;22;20458;-82
2021/06/12 10:15:19;;;;;;;29.67;27.57;;;;;;;;;;6277174;22;20448;-82
2021/06/12 10:17:47;;;;;;;30.63;28.43;;;;;;;;;;6277483;22;20487;-83
2021/06/12 10:20:15;;;;;;;28.30;26.40;;;;;;;;;;6277458;22;20720;-82
2021/06/12 10:22:44;;;;;;;27.03;25.33;;;;;;;;;;6277180;22;20383;-83
2021/06/12 10:25:14;;;;;;;26.13;24.47;;;;;;;;;;6276733;22;20428;-82
2021/06/12 10:27:41;;;;;;;27.37;25.60;;;;;;;;;;6276294;22;20451;-83
2021/06/12 10:30:09;;;;;;;28.20;26.20;;;;;;;;;;6277275;22;20412;-81
2021/06/12 10:32:36;;;;;;;26.17;24.17;;;;;;;;;;6276948;22;20375;-81
2021/06/12 10:35:04;;;;;;;27.20;25.40;;;;;;;;;;6276722;22;20414;-82
2021/06/12 10:37:54;;;;;;;25.67;23.87;;;;;;;;;;6277007;22;20398;-82
2021/06/12 10:40:34;;;;;;;26.37;24.53;;;;;;;;;;6277274;22;20396;-82
2021/06/12 10:43:06;;;;;;;25.57;23.80;;;;;;;;;;6277027;22;20404;-83
2021/06/12 10:45:33;;;;;;;25.63;24.00;;;;;;;;;;6277921;22;20385;-88
2021/06/12 10:48:00;;;;;;;25.83;24.03;;;;;;;;;;6277239;22;20400;-83
2021/06/12 10:50:32;;;;;;;26.03;24.27;;;;;;;;;;6250577;22;20397;-87
2021/06/12 10:53:14;;;;;;;24.97;23.27;;;;;;;;;;6277643;22;20389;-85
2021/06/12 10:55:42;;;;;;;26.10;24.30;;;;;;;;;;6272420;22;20424;-83
2021/06/12 10:58:24;;;;;;;26.33;24.33;;;;;;;;;;6277608;22;20374;-83
2021/06/12 11:01:06;;;;;;;26.00;24.23;;;;;;;;;;6276219;22;20416;-86
2021/06/12 11:03:49;;;;;;;24.63;23.03;;;;;;;;;;6277069;22;20436;-80
2021/06/12 11:06:32;;;;;;;26.30;24.40;;;;;;;;;;6279070;22;20403;-81
2021/06/12 11:09:18;;;;;;;25.47;23.67;;;;;;;;;;6279177;22;20404;-80
2021/06/12 11:11:47;;;;;;;25.50;23.93;;;;;;;;;;6279003;22;20393;-81
2021/06/12 11:14:41;;;;;;;24.87;23.20;;;;;;;;;;6278928;22;20491;-81
2021/06/12 11:17:18;;;;;;;22.50;21.20;;;;;;;;;;6125859;23;20725;-81
2021/06/12 11:19:46;;;;;;;25.00;22.97;;;;;;;;;;6125726;23;20419;-81
2021/06/12 11:22:25;;;;;;;24.13;22.53;;;;;;;;;;6125782;23;20394;-81
2021/06/12 11:24:55;;;;;;;25.07;23.27;;;;;;;;;;6125593;23;20436;-80
2021/06/12 11:27:27;;;;;;;25.47;23.50;;;;;;;;;;6125743;23;20420;-81
2021/06/12 11:30:13;;;;;;;24.03;22.60;;;;;;;;;;6125794;23;20883;-81
2021/06/12 11:32:40;;;;;;;23.97;21.97;;;;;;;;;;6125649;23;20380;-81
2021/06/12 11:35:08;;;;;;;23.53;22.03;;;;;;;;;;6125592;23;20787;-81
2021/06/12 11:37:35;;;;;;;22.73;21.17;;;;;;;;;;6125584;23;20401;-81
2021/06/12 11:40:03;;;;;;;24.87;22.80;;;;;;;;;;6101240;23;20440;-81
2021/06/12 11:42:44;;;;;;;23.60;22.20;;;;;;;;;;6125594;23;20892;-81
2021/06/12 11:45:21;;;;;;;24.77;23.27;;;;;;;;;;6125395;23;20887;-80
2021/06/12 11:47:48;;;;;;;23.47;21.97;;;;;;;;;;6125579;23;20440;-81
2021/06/12 11:50:15;;;;;;;24.80;22.97;;;;;;;;;;6125965;23;20390;-80
2021/06/12 11:52:43;;;;;;;27.27;25.77;;;;;;;;;;6195186;22;20409;-82
2021/06/12 11:55:14;;;;;;;29.83;28.20;;;;;;;;;;6278271;22;20445;-81
2021/06/12 11:57:43;;;;;;;27.43;25.83;;;;;;;;;;6278366;22;20387;-81
2021/06/12 12:00:26;;;;;;;26.43;24.80;;;;;;;;;;6278223;22;20402;-80
2021/06/12 12:03:04;;;;;;;23.53;22.13;;;;;;;;;;6278314;22;20444;-81
2021/06/12 12:05:32;;;;;;;29.00;26.97;;;;;;;;;;6278036;22;20882;-81
2021/06/12 12:07:59;;;;;;;25.93;24.40;;;;;;;;;;6278535;22;20950;-81
2021/06/12 12:10:26;;;;;;;24.17;22.40;;;;;;;;;;6278204;22;20439;-81
2021/06/12 12:12:55;;;;;;;23.67;22.17;;;;;;;;;;6251258;22;20776;-81
2021/06/12 12:15:35;;;;;;;23.53;21.93;;;;;;;;;;6277643;22;20433;-82
2021/06/12 12:18:02;;;;;;;24.33;22.73;;;;;;;;;;6278877;22;20404;-90
2021/06/12 12:20:29;;;;;;;24.13;22.13;;;;;;;;;;6279054;22;20463;-86
2021/06/12 12:22:56;;;;;;;24.13;22.60;;;;;;;;;;6278912;22;20393;-88
2021/06/12 12:25:26;;;;;;;24.97;23.17;;;;;;;;;;6278686;22;20433;-85
2021/06/12 12:28:04;;;;;;;24.07;22.40;;;;;;;;;;6278372;22;20785;-87
2021/06/12 12:30:31;;;;;;;23.97;22.37;;;;;;;;;;6278105;22;20409;-88
2021/06/12 12:33:08;;;;;;;23.70;22.30;;;;;;;;;;6278944;22;20456;-88
2021/06/12 12:35:34;;;;;;;24.70;23.13;;;;;;;;;;6278309;22;20437;-89
2021/06/12 12:38:11;;;;;;;23.63;21.93;;;;;;;;;;6278670;22;20408;-87
2021/06/12 12:40:38;;;;;;;24.10;22.43;;;;;;;;;;6274647;22;20376;-86
2021/06/12 12:43:07;;;;;;;23.87;22.37;;;;;;;;;;6278270;22;20368;-88
2021/06/12 12:45:35;;;;;;;24.30;22.70;;;;;;;;;;6277932;22;20417;-88
2021/06/12 12:48:02;;;;;;;23.80;22.30;;;;;;;;;;6278350;22;20405;-90
2021/06/12 12:50:29;;;;;;;23.20;21.80;;;;;;;;;;6278076;22;20398;-88
2021/06/12 12:53:07;;;;;;;24.00;22.50;;;;;;;;;;6278073;22;20409;-87
2021/06/12 12:55:34;;;;;;;24.10;22.50;;;;;;;;;;6277913;22;20413;-85
2021/06/12 12:58:01;;;;;;;24.47;22.87;;;;;;;;;;6278624;22;20415;-86
2021/06/12 13:00:30;;;;;;;24.03;22.40;;;;;;;;;;6278391;22;20402;-90
2021/06/12 13:03:01;;;;;;;23.93;22.37;;;;;;;;;;6278251;22;20368;-85
2021/06/12 13:05:28;;;;;;;23.73;22.13;;;;;;;;;;6278138;22;20405;-89
2021/06/12 13:07:59;;;;;;;24.80;23.13;;;;;;;;;;6278848;22;20406;-88
2021/06/12 13:10:30;;;;;;;23.50;22.10;;;;;;;;;;6278398;22;20428;-89
2021/06/12 13:12:58;;;;;;;24.40;22.80;;;;;;;;;;6278018;22;20413;-87
2021/06/12 13:15:25;;;;;;;23.40;21.80;;;;;;;;;;6278326;22;20438;-89
2021/06/12 13:18:03;;;;;;;24.10;22.33;;;;;;;;;;6251129;22;20406;-88
2021/06/12 13:20:31;;;;;;;24.47;22.77;;;;;;;;;;6278535;22;20739;-88
2021/06/12 13:22:57;;;;;;;24.63;22.53;;;;;;;;;;6277878;22;20390;-87
2021/06/12 13:25:26;;;;;;;24.27;22.67;;;;;;;;;;6277995;22;20437;-89
2021/06/12 13:27:54;;;;;;;23.67;22.07;;;;;;;;;;6277235;22;20464;-83
2021/06/12 13:30:33;;;;;;;23.23;21.73;;;;;;;;;;6277729;22;20368;-84
2021/06/12 13:33:03;;;;;;;24.63;22.90;;;;;;;;;;6250798;22;20404;-85
2021/06/12 13:35:30;;;;;;;23.43;22.00;;;;;;;;;;6250935;22;20468;-85
2021/06/12 13:38:04;;;;;;;24.37;22.77;;;;;;;;;;6277718;22;20719;-87
2021/06/12 13:40:31;;;;;;;24.60;22.80;;;;;;;;;;6277774;22;20372;-85
2021/06/12 13:42:58;;;;;;;24.70;23.00;;;;;;;;;;6277171;22;20402;-84
2021/06/12 13:45:25;;;;;;;24.73;23.03;;;;;;;;;;6277642;22;20375;-85
2021/06/12 13:47:52;;;;;;;23.87;22.27;;;;;;;;;;6250735;22;20383;-83
2021/06/12 13:50:20;;;;;;;24.80;23.00;;;;;;;;;;6277240;22;20373;-84
2021/06/12 13:52:47;;;;;;;24.50;22.63;;;;;;;;;;6278353;22;20388;-86
2021/06/12 13:55:14;;;;;;;26.30;24.50;;;;;;;;;;6278572;22;20423;-89
2021/06/12 13:57:42;;;;;;;24.57;22.97;;;;;;;;;;6278499;22;20853;-88
2021/06/12 14:00:10;;;;;;;24.90;22.97;;;;;;;;;;6278527;22;20364;-94
2021/06/12 14:02:37;;;;;;;25.20;23.37;;;;;;;;;;6279833;22;20393;-86
2021/06/12 14:05:04;;;;;;;25.40;23.70;;;;;;;;;;6277658;22;20367;-86
2021/06/12 14:07:38;;;;;;;24.60;23.00;;;;;;;;;;6277746;22;20369;-86
2021/06/12 14:10:05;;;;;;;24.83;23.30;;;;;;;;;;6277689;22;20446;-91
2021/06/12 14:12:32;;;;;;;24.50;22.77;;;;;;;;;;6276903;22;20715;-89
2021/06/12 14:14:59;;;;;;;24.87;23.17;;;;;;;;;;6277471;22;20412;-83
2021/06/12 14:17:26;;;;;;;24.50;22.80;;;;;;;;;;6277215;22;20428;-83
2021/06/12 14:19:53;;;;;;;24.00;22.40;;;;;;;;;;6277501;22;20394;-84
2021/06/12 14:22:20;;;;;;;24.13;22.43;;;;;;;;;;6277058;22;20405;-83
2021/06/12 14:24:48;;;;;;;24.90;22.93;;;;;;;;;;6276793;22;20429;-83
2021/06/12 14:27:15;;;;;;;23.20;21.60;;;;;;;;;;6276995;22;20445;-84
2021/06/12 14:29:45;;;;;;;24.13;22.63;;;;;;;;;;6277441;22;20419;-84
2021/06/12 14:32:12;;;;;;;24.33;22.73;;;;;;;;;;6277107;22;20372;-84
2021/06/12 14:34:39;;;;;;;23.93;22.20;;;;;;;;;;6277315;22;20403;-83
2021/06/12 14:37:06;;;;;;;26.03;24.13;;;;;;;;;;6277346;22;20372;-81
2021/06/12 14:39:33;;;;;;;24.67;23.17;;;;;;;;;;6278215;22;20767;-83
2021/06/12 14:42:01;;;;;;;24.37;22.70;;;;;;;;;;6279835;22;20707;-82
2021/06/12 14:44:29;;;;;;;23.63;22.03;;;;;;;;;;6279456;22;20405;-82
2021/06/12 14:46:55;;;;;;;23.30;21.80;;;;;;;;;;6279228;22;20369;-83
2021/06/12 14:49:23;;;;;;;23.87;22.13;;;;;;;;;;6278788;22;20720;-82
2021/06/12 14:51:50;;;;;;;23.90;22.30;;;;;;;;;;6279325;22;20385;-83
2021/06/12 14:54:17;;;;;;;25.57;23.87;;;;;;;;;;6278328;22;20452;-83
2021/06/12 14:56:44;;;;;;;24.17;22.57;;;;;;;;;;6278480;22;20846;-82
2021/06/12 14:59:12;;;;;;;26.27;24.27;;;;;;;;;;6279168;22;20697;-82
2021/06/12 15:01:39;;;;;;;25.03;23.17;;;;;;;;;;6278670;22;20391;-83
2021/06/12 15:04:05;;;;;;;23.03;21.30;;;;;;;;;;6279236;22;20714;-83
2021/06/12 15:06:32;;;;;;;25.03;22.20;;;;;;;;;;6278854;22;20722;-83
2021/06/12 15:08:59;;;;;;;24.27;22.27;;;;;;;;;;6278788;22;20961;-83
2021/06/12 15:11:26;;;;;;;24.20;22.50;;;;;;;;;;6279227;22;20382;-83
2021/06/12 15:13:53;;;;;;;30.67;24.33;;;;;;;;;;6278100;22;20438;-82
2021/06/12 15:16:21;;;;;;;25.50;23.90;;;;;;;;;;6278643;22;20725;-83
2021/06/12 15:18:48;;;;;;;23.50;21.63;;;;;;;;;;6278940;22;20400;-83
2021/06/12 15:21:15;;;;;;;24.17;22.50;;;;;;;;;;6278948;22;20395;-83
2021/06/12 15:23:42;;;;;;;24.60;22.80;;;;;;;;;;6278395;22;20372;-81
2021/06/12 15:26:08;;;;;;;24.00;22.40;;;;;;;;;;6278361;22;20424;-83
2021/06/12 15:28:35;;;;;;;24.63;22.93;;;;;;;;;;6278589;22;20790;-81
2021/06/12 15:31:02;;;;;;;25.07;23.17;;;;;;;;;;6278880;22;20401;-81
2021/06/12 15:33:31;;;;;;;26.23;24.27;;;;;;;;;;6278807;22;20412;-81
2021/06/12 15:35:58;;;;;;;25.37;23.77;;;;;;;;;;6278273;22;20804;-83
2021/06/12 15:38:24;;;;;;;25.17;22.70;;;;;;;;;;6278751;22;20398;-82
2021/06/12 15:40:51;;;;;;;24.53;22.87;;;;;;;;;;6278523;22;20871;-83
2021/06/12 15:43:18;;;;;;;31.00;28.17;;;;;;;;;;6278700;22;20428;-82
2021/06/12 15:45:45;;;;;;;27.47;25.43;;;;;;;;;;6278364;22;20393;-82
2021/06/12 15:48:12;;;;;;;25.50;23.70;;;;;;;;;;6279440;22;20393;-83
2021/06/12 15:50:40;;;;;;;25.40;23.60;;;;;;;;;;6278260;22;20393;-83
2021/06/12 15:53:07;;;;;;;25.43;23.70;;;;;;;;;;6278315;22;20896;-83
2021/06/12 15:55:34;;;;;;;25.80;24.20;;;;;;;;;;6278228;22;20466;-83
2021/06/12 15:58:01;;;;;;;25.30;23.60;;;;;;;;;;6278371;22;20402;-83
2021/06/12 16:00:29;;;;;;;26.20;24.20;;;;;;;;;;6278451;22;20402;-83
2021/06/12 16:02:55;;;;;;;26.33;24.37;;;;;;;;;;6278701;22;20405;-83
2021/06/12 16:05:22;;;;;;;25.40;23.70;;;;;;;;;;6278534;22;20387;-84
2021/06/12 16:07:51;;;;;;;25.70;24.00;;;;;;;;;;6278843;22;20357;-86
2021/06/12 16:10:18;;;;;;;26.13;24.33;;;;;;;;;;6279142;22;20397;-87
2021/06/12 16:12:46;;;;;;;26.63;24.83;;;;;;;;;;6252198;22;20462;-88
2021/06/12 16:15:14;;;;;;;28.10;26.20;;;;;;;;;;6278467;22;20533;-86
2021/06/12 16:17:41;;;;;;;27.40;25.47;;;;;;;;;;6278604;22;20504;-87
2021/06/12 16:20:09;;;;;;;26.33;24.50;;;;;;;;;;6278578;22;20397;-82
2021/06/12 16:22:36;;;;;;;28.40;26.40;;;;;;;;;;6278073;22;20436;-82
2021/06/12 16:25:05;;;;;;;26.83;24.87;;;;;;;;;;6279035;22;20433;-87
2021/06/12 16:27:32;;;;;;;25.70;23.93;;;;;;;;;;6277926;22;20443;-86
2021/06/12 16:29:58;;;;;;;26.60;24.43;;;;;;;;;;6278303;22;20385;-84
2021/06/12 16:32:25;;;;;;;26.60;24.60;;;;;;;;;;6278918;22;20404;-88
2021/06/12 16:34:53;;;;;;;25.80;24.17;;;;;;;;;;6278643;22;20434;-86
2021/06/12 16:37:20;;;;;;;25.17;23.33;;;;;;;;;;6278765;22;20401;-87
2021/06/12 16:39:47;;;;;;;26.10;24.20;;;;;;;;;;6252305;22;20371;-87
2021/06/12 16:42:16;;;;;;;25.43;23.13;;;;;;;;;;6278273;22;20395;-87
2021/06/12 16:44:42;;;;;;;26.43;24.53;;;;;;;;;;6277886;22;20420;-87
2021/06/12 16:47:09;;;;;;;24.77;23.07;;;;;;;;;;6276980;22;20395;-88
2021/06/12 16:49:36;;;;;;;24.23;22.53;;;;;;;;;;6275968;22;20855;-87
2021/06/12 16:52:03;;;;;;;26.13;24.23;;;;;;;;;;6275906;22;20384;-85
2021/06/12 16:54:45;;;;;;;25.77;23.77;;;;;;;;;;6275545;22;20510;-86
2021/06/12 16:57:15;;;;;;;27.37;25.17;;;;;;;;;;6276161;22;20417;-86
2021/06/12 16:59:44;;;;;;;25.33;23.67;;;;;;;;;;6275632;22;20401;-86
2021/06/12 17:02:10;;;;;;;25.50;23.80;;;;;;;;;;6275620;22;20401;-86
2021/06/12 17:04:37;;;;;;;25.40;23.70;;;;;;;;;;6247289;22;20384;-83
2021/06/12 17:07:04;;;;;;;25.20;23.57;;;;;;;;;;6274319;22;20841;-85
2021/06/12 17:09:33;;;;;;;24.50;22.90;;;;;;;;;;6274568;22;20364;-84
2021/06/12 17:12:00;;;;;;;24.83;23.23;;;;;;;;;;6276328;22;20402;-83
2021/06/12 17:14:27;;;;;;;24.87;23.20;;;;;;;;;;6274969;22;20530;-83
2021/06/12 17:16:55;;;;;;;25.10;23.30;;;;;;;;;;6247427;22;20406;-83
2021/06/12 17:19:22;;;;;;;24.50;22.90;;;;;;;;;;6274125;22;20384;-83
2021/06/12 17:21:49;;;;;;;25.43;23.63;;;;;;;;;;6274375;22;20409;-83
2021/06/12 17:24:17;;;;;;;26.47;24.77;;;;;;;;;;6247362;22;20438;-89
2021/06/12 17:26:44;;;;;;;26.20;24.23;;;;;;;;;;6274461;22;20488;-85
2021/06/12 17:29:10;;;;;;;26.33;24.73;;;;;;;;;;6275859;22;20413;-84
2021/06/12 17:31:37;;;;;;;24.40;22.77;;;;;;;;;;6274887;22;20396;-85
2021/06/12 17:34:06;;;;;;;25.07;23.43;;;;;;;;;;6275214;22;20368;-85
2021/06/12 17:36:33;;;;;;;25.80;24.20;;;;;;;;;;6274462;22;20422;-85
2021/06/12 17:39:00;;;;;;;24.77;23.00;;;;;;;;;;6274919;22;20372;-85
2021/06/12 17:41:27;;;;;;;37.23;22.97;;;;;;;;;;6275134;22;20376;-85
2021/06/12 17:43:54;;;;;;;26.13;24.50;;;;;;;;;;6248113;22;20420;-86
2021/06/12 17:46:21;;;;;;;24.80;23.03;;;;;;;;;;6275223;22;20408;-84
2021/06/12 17:48:48;;;;;;;23.40;21.90;;;;;;;;;;6274644;22;20409;-83
2021/06/12 17:51:17;;;;;;;23.80;22.00;;;;;;;;;;6247568;22;20380;-85
2021/06/12 17:53:43;;;;;;;25.83;24.13;;;;;;;;;;6274735;22;20400;-84
2021/06/12 17:56:10;;;;;;;25.03;23.40;;;;;;;;;;6274080;22;20455;-85
2021/06/12 17:58:37;;;;;;;24.00;22.33;;;;;;;;;;6274684;22;20385;-84
2021/06/12 18:01:04;;;;;;;23.77;22.23;;;;;;;;;;6273706;22;20393;-85
2021/06/12 18:03:35;;;;;;;23.80;22.20;;;;;;;;;;6274169;22;20401;-84
2021/06/12 18:06:02;;;;;;;26.90;24.97;;;;;;;;;;6275203;22;20368;-85
2021/06/12 18:08:31;;;;;;;25.93;24.10;;;;;;;;;;6274964;22;20964;-85
2021/06/12 18:10:58;;;;;;;25.83;23.80;;;;;;;;;;6274721;22;20363;-85
2021/06/12 18:13:24;;;;;;;24.53;23.03;;;;;;;;;;6274698;22;20405;-84
2021/06/12 18:15:53;;;;;;;25.47;23.80;;;;;;;;;;6274305;22;20454;-84
2021/06/12 18:18:20;;;;;;;24.00;22.50;;;;;;;;;;6274976;22;20422;-84
2021/06/12 18:20:47;;;;;;;23.87;22.30;;;;;;;;;;6273850;22;20391;-83
2021/06/12 18:23:14;;;;;;;24.63;23.03;;;;;;;;;;6273743;22;20390;-85
2021/06/12 18:25:42;;;;;;;24.10;22.50;;;;;;;;;;6274039;22;20443;-84
2021/06/12 18:28:10;;;;;;;24.50;22.80;;;;;;;;;;6274659;22;20400;-84
2021/06/12 18:30:37;;;;;;;24.20;22.50;;;;;;;;;;6274933;22;20878;-85
2021/06/12 18:33:04;;;;;;;24.77;23.10;;;;;;;;;;6273909;22;20425;-84
2021/06/12 18:35:31;;;;;;;25.00;23.40;;;;;;;;;;6274204;22;20475;-84
2021/06/12 18:37:58;;;;;;;24.57;22.80;;;;;;;;;;6273692;22;20400;-84
2021/06/12 18:40:28;;;;;;;24.90;23.37;;;;;;;;;;6273704;22;20857;-83
2021/06/12 18:42:56;;;;;;;24.67;22.87;;;;;;;;;;6274256;22;20400;-84
2021/06/12 18:45:24;;;;;;;23.90;22.17;;;;;;;;;;6274158;22;20397;-84
2021/06/12 18:47:50;;;;;;;24.77;22.73;;;;;;;;;;6273984;22;20409;-84
2021/06/12 18:50:18;;;;;;;23.13;21.57;;;;;;;;;;6274399;22;20400;-83
2021/06/12 18:52:45;;;;;;;24.40;22.80;;;;;;;;;;6274870;22;20444;-84
2021/06/12 18:55:13;;;;;;;23.53;21.93;;;;;;;;;;6273751;22;20421;-83
2021/06/12 18:57:40;;;;;;;24.30;22.40;;;;;;;;;;6273713;22;20415;-83
2021/06/12 19:00:10;;;;;;;24.80;23.10;;;;;;;;;;6273857;22;20947;-83
2021/06/12 19:02:37;;;;;;;24.83;23.00;;;;;;;;;;6274359;22;20399;-85
2021/06/12 19:05:05;;;;;;;23.73;22.03;;;;;;;;;;6274107;22;20401;-84
2021/06/12 19:07:32;;;;;;;24.70;23.10;;;;;;;;;;6274493;22;20407;-84
2021/06/12 19:09:58;;;;;;;24.53;22.60;;;;;;;;;;6273329;22;20837;-84
2021/06/12 19:12:25;;;;;;;23.80;22.20;;;;;;;;;;6274395;22;20392;-84
2021/06/12 19:14:53;;;;;;;25.93;23.60;;;;;;;;;;6273585;22;20498;-83
2021/06/12 19:17:21;;;;;;;25.27;23.27;;;;;;;;;;6273790;22;20415;-85
2021/06/12 19:19:49;;;;;;;24.33;22.40;;;;;;;;;;6275110;22;20385;-84
2021/06/12 19:22:16;;;;;;;25.13;23.30;;;;;;;;;;6274176;22;20373;-84
2021/06/12 19:24:42;;;;;;;25.73;23.93;;;;;;;;;;6274080;22;20401;-84
2021/06/12 19:27:09;;;;;;;27.20;25.10;;;;;;;;;;6275533;22;20438;-84
2021/06/12 19:29:36;;;;;;;24.60;23.00;;;;;;;;;;6276256;22;20362;-83
2021/06/12 19:32:03;;;;;;;26.03;24.03;;;;;;;;;;6275901;22;20358;-83
2021/06/12 19:34:34;;;;;;;25.00;23.30;;;;;;;;;;6248905;22;20443;-84
2021/06/12 19:37:03;;;;;;;26.03;24.10;;;;;;;;;;6275818;22;20432;-83
2021/06/12 19:39:32;;;;;;;26.43;24.13;;;;;;;;;;6276180;22;20407;-84
2021/06/12 19:42:00;;;;;;;26.40;24.50;;;;;;;;;;6275973;22;20368;-83
2021/06/12 19:44:27;;;;;;;25.90;23.90;;;;;;;;;;6276263;22;20873;-84
2021/06/12 19:46:54;;;;;;;26.40;24.50;;;;;;;;;;6276112;22;20855;-83
2021/06/12 19:49:22;;;;;;;28.20;25.73;;;;;;;;;;6275574;22;20402;-83
2021/06/12 19:51:51;;;;;;;26.27;24.30;;;;;;;;;;6275734;22;20426;-83
2021/06/12 19:54:18;;;;;;;26.93;24.73;;;;;;;;;;6275972;22;20369;-84
2021/06/12 19:56:45;;;;;;;26.90;24.50;;;;;;;;;;6275861;22;20703;-84
2021/06/12 19:59:15;;;;;;;26.67;24.53;;;;;;;;;;6275620;22;20945;-83
2021/06/12 20:01:42;;;;;;;25.27;23.47;;;;;;;;;;6275758;22;20377;-85
2021/06/12 20:04:09;;;;;;;25.60;23.70;;;;;;;;;;6275689;22;20411;-84
2021/06/12 20:06:36;;;;;;;24.90;22.83;;;;;;;;;;6275268;22;20370;-84
2021/06/12 20:09:04;;;;;;;27.40;24.80;;;;;;;;;;6275777;22;20374;-84
2021/06/12 20:11:31;;;;;;;25.87;24.00;;;;;;;;;;6248094;22;20422;-84
2021/06/12 20:13:59;;;;;;;26.53;24.63;;;;;;;;;;6274755;22;20390;-84
2021/06/12 20:16:26;;;;;;;24.70;23.00;;;;;;;;;;6275268;22;20446;-84
2021/06/12 20:18:53;;;;;;;24.90;23.30;;;;;;;;;;6275757;22;20368;-83
2021/06/12 20:21:20;;;;;;;26.30;23.97;;;;;;;;;;6249020;22;20444;-84
2021/06/12 20:23:46;;;;;;;26.50;24.40;;;;;;;;;;6275135;22;20402;-83
2021/06/12 20:26:16;;;;;;;25.17;23.30;;;;;;;;;;6275264;22;20447;-84
2021/06/12 20:28:43;;;;;;;24.93;22.90;;;;;;;;;;6275695;22;20381;-84
2021/06/12 20:31:10;;;;;;;24.50;22.90;;;;;;;;;;6275337;22;20390;-83
2021/06/12 20:33:37;;;;;;;25.20;23.57;;;;;;;;;;6275316;22;20438;-84
2021/06/12 20:36:05;;;;;;;24.53;22.93;;;;;;;;;;6274859;22;20421;-84
2021/06/12 20:38:32;;;;;;;24.73;23.13;;;;;;;;;;6248060;22;20764;-83
2021/06/12 20:40:59;;;;;;;26.67;24.07;;;;;;;;;;6274722;22;20403;-83
2021/06/12 20:43:27;;;;;;;24.60;22.80;;;;;;;;;;6274831;22;20752;-84
2021/06/12 20:45:54;;;;;;;26.13;24.17;;;;;;;;;;6275336;22;20691;-84
2021/06/12 20:48:21;;;;;;;26.50;24.27;;;;;;;;;;6275124;22;20381;-84